Terminal Aerodrome Forecast
Issued by NWS Portland, ME

Home | Current Version | Previous Version | Text Only | Print | Product List | Glossary On
Versions: 1 2 3 4 5 6 7 8 9 10 11 12 13 14 15 16
000
FTUS41 KGYX 180534
TAFCON
TAF
KCON 180534Z 1806/1906 VRB03KT P6SM SCT100
     FM181200 15005KT P6SM OVC050
     FM181800 26012KT P6SM VCSH SCT050 OVC100
     FM182200 30010KT P6SM BKN100=

USA.gov is the U.S. government's official web portal to all federal, state and local government web resources and services.